Time;durP1;ratioP1;P1;durP2;ratioP2;P2;SDS_P1;SDS_P2;PMS_P1;PMS_P2;Temp;Humidity;BMP_temperature;BMP_pressure;BME280_temperature;BME280_humidity;BME280_pressure;Samples;Min_cycle;Max_cycle;Signal;HPM_P1;HPM_P2
2021/08/20 00:00:15;;;;;;;;;2.00;2.00;;;;;17.55;64.91;101416.13;4962145;28;45330;-70
2021/08/20 00:02:41;;;;;;;;;2.75;2.75;;;;;17.50;64.44;101423.84;4964464;28;45390;-72
2021/08/20 00:05:08;;;;;;;;;3.00;3.00;;;;;17.44;64.20;101420.06;4948822;28;45417;-73
2021/08/20 00:07:33;;;;;;;;;3.25;3.25;;;;;17.40;64.66;101416.88;4948501;28;45568;-73
2021/08/20 00:09:59;;;;;;;;;4.50;4.00;;;;;17.36;65.50;101418.28;4954225;28;45479;-72
2021/08/20 00:12:24;;;;;;;;;4.25;4.25;;;;;17.34;65.73;101420.28;4943454;28;45546;-71
2021/08/20 00:14:50;;;;;;;;;3.50;3.00;;;;;17.32;65.90;101426.81;4960643;28;45543;-72
2021/08/20 00:17:16;;;;;;;;;5.00;3.50;;;;;17.30;65.77;101418.13;4955232;28;45816;-71
2021/08/20 00:19:41;;;;;;;;;5.00;3.25;;;;;17.27;66.14;101424.66;4949138;28;45503;-70
2021/08/20 00:22:08;;;;;;;;;5.25;4.75;;;;;17.26;65.21;101416.81;4956145;28;46326;-69
2021/08/20 00:24:35;;;;;;;;;5.00;5.00;;;;;17.24;65.68;101417.00;4952920;28;45669;-68
2021/08/20 00:27:01;;;;;;;;;5.00;5.00;;;;;17.24;65.74;101418.84;4944001;28;45739;-69
2021/08/20 00:29:26;;;;;;;;;5.25;4.00;;;;;17.24;65.51;101410.84;4943595;28;45592;-70
2021/08/20 00:31:52;;;;;;;;;7.00;5.75;;;;;17.23;65.38;101418.00;4946667;28;46053;-69
2021/08/20 00:34:17;;;;;;;;;4.00;4.00;;;;;17.22;66.43;101413.69;4950216;28;45428;-70
2021/08/20 00:36:43;;;;;;;;;5.00;4.25;;;;;17.22;65.52;101413.69;4960129;28;45631;-68
2021/08/20 00:39:08;;;;;;;;;4.25;3.50;;;;;17.20;65.20;101413.84;4950159;28;45949;-68
2021/08/20 00:41:34;;;;;;;;;7.00;4.00;;;;;17.19;65.90;101408.69;4950573;28;45405;-70
2021/08/20 00:44:00;;;;;;;;;3.50;3.50;;;;;17.18;65.41;101415.88;4951027;28;45515;-70
2021/08/20 00:46:26;;;;;;;;;4.25;4.00;;;;;17.16;66.49;101417.91;4948033;28;45592;-69
2021/08/20 00:48:51;;;;;;;;;4.50;4.50;;;;;17.14;66.18;101413.75;4950311;28;45586;-71
2021/08/20 00:51:23;;;;;;;;;4.50;4.00;;;;;17.14;66.96;101413.75;4949220;28;45540;-70
2021/08/20 00:53:50;;;;;;;;;3.25;2.25;;;;;17.13;67.00;101412.06;4950164;28;45569;-71
2021/08/20 00:56:16;;;;;;;;;4.00;3.00;;;;;17.12;66.49;101408.56;4957341;28;45526;-68
2021/08/20 00:58:42;;;;;;;;;4.00;4.00;;;;;17.13;66.44;101414.72;4955723;28;45580;-70
2021/08/20 01:01:08;;;;;;;;;3.75;3.00;;;;;17.10;67.20;101413.25;4961344;28;45560;-71
2021/08/20 01:03:36;;;;;;;;;5.00;4.00;;;;;17.09;66.49;101402.75;4948388;28;45821;-68
2021/08/20 01:06:02;;;;;;;;;5.00;3.00;;;;;17.11;66.58;101406.06;4952681;28;45524;-68
2021/08/20 01:08:32;;;;;;;;;4.75;4.75;;;;;17.13;67.51;101402.19;4946351;28;45604;-71
2021/08/20 01:10:59;;;;;;;;;3.75;3.75;;;;;17.17;66.52;101400.03;4948379;28;46130;-70
2021/08/20 01:13:26;;;;;;;;;3.25;3.00;;;;;17.21;66.73;101398.69;4946018;28;45419;-70
2021/08/20 01:15:55;;;;;;;;;5.50;5.50;;;;;17.21;66.07;101401.34;4957539;28;45472;-70
2021/08/20 01:18:24;;;;;;;;;6.00;4.00;;;;;17.24;66.56;101395.66;4944489;28;45624;-71
2021/08/20 01:20:52;;;;;;;;;4.50;4.25;;;;;17.29;67.44;101397.78;4948503;28;45535;-70
2021/08/20 01:23:18;;;;;;;;;5.00;4.00;;;;;17.31;66.13;101391.25;4949377;28;45623;-71
2021/08/20 01:25:44;;;;;;;;;3.75;3.00;;;;;17.34;66.54;101398.91;4945864;28;45596;-73
2021/08/20 01:28:10;;;;;;;;;5.00;4.00;;;;;17.37;67.05;101387.84;4952221;28;45433;-70
2021/08/20 01:30:35;;;;;;;;;4.00;4.00;;;;;17.40;66.52;101384.81;4949053;28;45526;-70
2021/08/20 01:33:01;;;;;;;;;4.50;4.00;;;;;17.41;65.87;101394.53;4951023;28;45502;-70
2021/08/20 01:35:27;;;;;;;;;6.75;4.75;;;;;17.40;65.77;101387.50;4950774;28;45489;-68
2021/08/20 01:37:53;;;;;;;;;4.00;4.00;;;;;17.44;65.30;101395.19;4947761;28;45655;-70
2021/08/20 01:40:18;;;;;;;;;4.75;4.00;;;;;17.47;66.33;101386.78;4956936;28;46232;-67
2021/08/20 01:42:44;;;;;;;;;4.00;3.75;;;;;17.48;66.08;101383.97;4952156;28;45525;-71
2021/08/20 01:45:10;;;;;;;;;5.75;4.25;;;;;17.49;65.23;101385.59;4956480;28;45472;-70
2021/08/20 01:47:35;;;;;;;;;5.00;4.00;;;;;17.48;65.80;101386.63;4954851;28;45416;-70
2021/08/20 01:50:01;;;;;;;;;6.00;5.00;;;;;17.51;64.89;101382.75;4957046;28;46581;-70
2021/08/20 01:52:26;;;;;;;;;4.25;4.25;;;;;17.49;65.06;101379.44;4961100;28;45699;-70
2021/08/20 01:54:51;;;;;;;;;7.75;4.75;;;;;17.45;65.20;101373.59;4957750;28;45412;-69
2021/08/20 01:57:16;;;;;;;;;4.25;3.75;;;;;17.45;65.49;101375.44;4945017;28;45632;-70
2021/08/20 01:59:42;;;;;;;;;5.00;4.00;;;;;17.48;65.91;101375.09;4949063;28;45611;-71
2021/08/20 02:02:07;;;;;;;;;4.00;4.00;;;;;17.50;65.51;101370.41;4960290;28;45317;-70
2021/08/20 02:04:33;;;;;;;;;3.75;3.75;;;;;17.52;64.79;101363.03;4954318;28;46041;-71
2021/08/20 02:06:59;;;;;;;;;5.50;4.00;;;;;17.50;64.80;101362.38;4950311;28;45598;-71
2021/08/20 02:09:24;;;;;;;;;6.00;4.75;;;;;17.48;64.90;101361.72;4943512;28;46197;-70
2021/08/20 02:11:50;;;;;;;;;5.50;2.75;;;;;17.47;64.95;101358.22;4955553;28;45586;-70
2021/08/20 02:14:16;;;;;;;;;3.75;3.00;;;;;17.49;65.59;101368.75;4955510;28;45641;-70
2021/08/20 02:16:42;;;;;;;;;4.00;4.00;;;;;17.51;65.69;101369.41;4960714;28;45618;-69
2021/08/20 02:19:07;;;;;;;;;3.00;3.00;;;;;17.53;65.18;101372.69;4958232;28;46506;-70
2021/08/20 02:21:33;;;;;;;;;4.75;4.75;;;;;17.51;64.82;101367.56;4954227;28;45844;-70
2021/08/20 02:23:58;;;;;;;;;8.00;4.75;;;;;17.48;64.67;101359.06;4954371;28;45471;-71
2021/08/20 02:26:23;;;;;;;;;4.75;4.75;;;;;17.44;64.52;101366.59;4943405;28;45366;-70
2021/08/20 02:28:49;;;;;;;;;4.75;4.75;;;;;17.39;64.62;101355.63;4949052;28;59792;-70
2021/08/20 02:31:14;;;;;;;;;8.25;4.75;;;;;17.38;64.50;101357.47;4958975;28;45421;-70
2021/08/20 02:33:44;;;;;;;;;4.00;4.00;;;;;17.36;64.54;101359.50;4950569;28;45467;-70
2021/08/20 02:36:11;;;;;;;;;4.00;4.00;;;;;17.33;64.96;101354.50;4963223;28;45429;-70
2021/08/20 02:38:37;;;;;;;;;4.25;4.00;;;;;17.32;64.94;101344.81;4930284;28;47262;-71
2021/08/20 02:41:02;;;;;;;;;4.00;4.00;;;;;17.30;65.04;101341.50;4953372;28;45489;-71
2021/08/20 02:43:27;;;;;;;;;4.00;3.00;;;;;17.31;65.80;101355.66;4943925;28;45576;-69
2021/08/20 02:45:53;;;;;;;;;6.00;5.00;;;;;17.33;65.33;101359.00;4954595;28;45899;-70
2021/08/20 02:48:19;;;;;;;;;4.00;4.00;;;;;17.33;64.93;101362.53;4948425;28;45535;-69
2021/08/20 02:50:44;;;;;;;;;5.50;5.00;;;;;17.35;65.28;101365.81;4951511;28;45480;-71
2021/08/20 02:53:10;;;;;;;;;4.75;3.50;;;;;17.37;65.35;101361.13;4947288;28;45825;-72
2021/08/20 02:55:35;;;;;;;;;5.50;5.25;;;;;17.37;64.78;101357.66;4961385;28;45471;-70
2021/08/20 02:58:01;;;;;;;;;4.00;4.00;;;;;17.36;64.95;101370.19;4949462;28;45467;-70
2021/08/20 03:00:26;;;;;;;;;5.50;5.00;;;;;17.36;65.54;101362.16;4939637;28;49293;-70
2021/08/20 03:02:51;;;;;;;;;6.25;4.00;;;;;17.38;65.71;101362.81;4944053;28;45472;-70
2021/08/20 03:05:17;;;;;;;;;3.00;3.00;;;;;17.37;65.29;101363.81;4953754;28;45746;-70
2021/08/20 03:07:42;;;;;;;;;3.00;3.00;;;;;17.36;65.39;101366.69;4954288;28;46983;-70
2021/08/20 03:10:09;;;;;;;;;4.75;4.75;;;;;17.36;65.62;101359.50;4953039;28;45413;-71
2021/08/20 03:12:34;;;;;;;;;4.00;4.00;;;;;17.38;65.73;101362.81;4945480;28;45707;-70
2021/08/20 03:15:00;;;;;;;;;5.75;4.00;;;;;17.39;65.89;101367.13;4946376;28;45597;-70
2021/08/20 03:17:25;;;;;;;;;4.75;4.25;;;;;17.40;66.42;101366.13;4949731;28;45532;-70
2021/08/20 03:19:50;;;;;;;;;5.00;5.00;;;;;17.44;66.27;101363.13;4957067;28;45552;-69
2021/08/20 03:22:16;;;;;;;;;6.00;4.25;;;;;17.45;66.46;101367.44;4940307;28;45452;-71
2021/08/20 03:24:42;;;;;;;;;5.00;4.00;;;;;17.44;65.32;101355.09;4951372;28;45520;-70
2021/08/20 03:27:07;;;;;;;;;3.50;3.50;;;;;17.42;65.33;101358.75;4948281;28;46174;-70
2021/08/20 03:29:33;;;;;;;;;4.50;4.00;;;;;17.42;65.73;101353.41;4950742;28;45491;-70
2021/08/20 03:31:58;;;;;;;;;4.00;4.00;;;;;17.45;66.34;101357.56;4955057;28;45529;-69
2021/08/20 03:34:23;;;;;;;;;3.75;3.75;;;;;17.46;66.16;101353.91;4947090;28;45452;-70
2021/08/20 03:36:49;;;;;;;;;5.75;4.50;;;;;17.48;65.76;101351.03;4959269;28;46966;-71
2021/08/20 03:39:14;;;;;;;;;5.75;5.00;;;;;17.47;65.84;101352.88;4945167;28;45494;-70
2021/08/20 03:41:39;;;;;;;;;4.00;3.50;;;;;17.50;66.23;101355.19;4955178;28;45564;-72
2021/08/20 03:44:05;;;;;;;;;8.00;5.50;;;;;17.50;65.53;101359.72;4944083;28;45412;-70
2021/08/20 03:46:30;;;;;;;;;5.00;5.00;;;;;17.48;65.49;101367.91;4945729;28;45657;-70
2021/08/20 03:48:56;;;;;;;;;4.00;4.00;;;;;17.45;65.33;101356.75;4954371;28;45543;-70
2021/08/20 03:51:21;;;;;;;;;6.00;3.75;;;;;17.45;65.72;101362.91;4949012;28;45600;-71
2021/08/20 03:53:46;;;;;;;;;4.00;4.00;;;;;17.44;65.69;101368.47;4938581;28;49239;-70
2021/08/20 03:56:12;;;;;;;;;6.50;5.00;;;;;17.45;65.43;101367.44;4952237;28;46172;-71
2021/08/20 03:58:37;;;;;;;;;3.50;3.50;;;;;17.43;65.79;101370.28;4947559;28;45616;-69
2021/08/20 04:01:08;;;;;;;;;5.00;5.00;;;;;17.44;65.72;101371.13;4950872;28;45505;-69
2021/08/20 04:03:34;;;;;;;;;5.25;4.75;;;;;17.40;65.43;101373.31;4949792;28;45573;-70
2021/08/20 04:05:59;;;;;;;;;6.75;4.00;;;;;17.36;65.88;101370.19;4946002;28;45570;-70
2021/08/20 04:08:24;;;;;;;;;5.00;5.00;;;;;17.37;66.03;101371.00;4948598;28;45512;-71
2021/08/20 04:10:50;;;;;;;;;5.00;4.50;;;;;17.37;65.88;101371.00;4945732;28;45480;-68
2021/08/20 04:13:15;;;;;;;;;8.00;5.25;;;;;17.38;65.64;101378.00;4951457;28;45532;-70
2021/08/20 04:15:41;;;;;;;;;5.50;3.75;;;;;17.40;66.71;101381.31;4944116;28;46725;-67
2021/08/20 04:18:06;;;;;;;;;5.50;4.75;;;;;17.42;65.74;101380.13;4944987;28;45620;-67
2021/08/20 04:20:32;;;;;;;;;5.75;3.50;;;;;17.40;65.56;101381.31;4953106;28;45494;-68
2021/08/20 04:22:59;;;;;;;;;4.00;4.00;;;;;17.38;66.01;101378.84;4948288;28;45488;-67
2021/08/20 04:25:25;;;;;;;;;6.50;5.00;;;;;17.40;66.05;101384.81;4950414;28;49633;-68
2021/08/20 04:27:51;;;;;;;;;6.00;3.50;;;;;17.41;66.61;101391.03;4947665;28;45885;-67
2021/08/20 04:30:22;;;;;;;;;5.50;5.50;;;;;17.45;66.61;101394.16;4931406;28;45655;-68
2021/08/20 04:32:49;;;;;;;;;5.75;4.00;;;;;17.44;66.64;101389.84;4941208;28;45535;-69
2021/08/20 04:35:14;;;;;;;;;4.00;4.00;;;;;17.36;66.57;101383.53;4944878;28;46107;-70
2021/08/20 04:37:40;;;;;;;;;6.00;5.00;;;;;17.34;66.56;101392.75;4941483;28;45531;-68
2021/08/20 04:40:07;;;;;;;;;6.00;4.00;;;;;17.30;66.90;101389.56;4944770;28;45818;-69
2021/08/20 04:42:35;;;;;;;;;7.00;4.00;;;;;17.31;66.62;101393.06;4938023;28;45409;-70
2021/08/20 04:45:01;;;;;;;;;5.75;5.00;;;;;17.29;66.96;101395.94;4922366;28;47328;-69
2021/08/20 04:47:26;;;;;;;;;5.50;5.00;;;;;17.27;67.00;101392.59;4941276;28;45465;-66
2021/08/20 04:49:52;;;;;;;;;4.00;4.00;;;;;17.28;67.08;101399.59;4939539;28;45535;-67
2021/08/20 04:52:17;;;;;;;;;5.75;5.00;;;;;17.28;66.85;101394.25;4944062;28;45522;-67
2021/08/20 04:54:43;;;;;;;;;5.50;5.50;;;;;17.29;66.73;101393.28;4940788;28;47095;-67
2021/08/20 04:57:08;;;;;;;;;4.75;4.25;;;;;17.29;66.62;101393.28;4941411;28;45864;-68
2021/08/20 04:59:34;;;;;;;;;4.00;4.00;;;;;17.29;66.45;101401.28;4926047;28;45646;-67
2021/08/20 05:02:00;;;;;;;;;4.00;4.00;;;;;17.29;67.09;101403.13;4939540;28;45584;-67
2021/08/20 05:04:25;;;;;;;;;5.00;4.25;;;;;17.30;67.21;101402.09;4943855;28;45985;-68
2021/08/20 05:06:51;;;;;;;;;7.00;6.00;;;;;17.31;66.78;101401.94;4942674;28;45642;-68
2021/08/20 05:09:16;;;;;;;;;6.00;4.25;;;;;17.30;67.13;101402.94;4935434;28;45655;-69
2021/08/20 05:11:42;;;;;;;;;6.00;6.00;;;;;17.33;66.87;101405.28;4939873;28;45584;-68
2021/08/20 05:14:07;;;;;;;;;4.75;4.75;;;;;17.34;67.14;101401.59;4939874;28;47007;-69
2021/08/20 05:16:33;;;;;;;;;5.75;5.75;;;;;17.36;67.18;101410.25;4946827;28;45561;-68
2021/08/20 05:18:58;;;;;;;;;5.00;5.00;;;;;17.37;66.79;101408.41;4931450;28;45850;-67
2021/08/20 05:21:24;;;;;;;;;5.00;5.00;;;;;17.39;66.83;101406.41;4928640;28;45639;-69
2021/08/20 05:23:49;;;;;;;;;5.00;4.75;;;;;17.40;66.82;101408.88;4941710;28;45722;-68
2021/08/20 05:26:15;;;;;;;;;5.00;5.00;;;;;17.39;67.04;101407.22;4944657;28;45592;-67
2021/08/20 05:28:40;;;;;;;;;7.25;5.75;;;;;17.41;67.16;101415.91;4943445;28;45882;-67
2021/08/20 05:31:06;;;;;;;;;6.25;4.00;;;;;17.41;66.58;101413.22;4945778;28;45507;-67
2021/08/20 05:33:32;;;;;;;;;5.00;4.25;;;;;17.44;66.61;101414.72;4945435;28;45492;-69
2021/08/20 05:35:58;;;;;;;;;5.00;4.50;;;;;17.45;67.08;101415.53;4946443;28;45458;-67
2021/08/20 05:38:23;;;;;;;;;6.25;4.75;;;;;17.45;67.18;101411.00;4950783;28;45451;-69
2021/08/20 05:40:49;;;;;;;;;5.25;5.00;;;;;17.46;67.23;101418.03;4945888;28;45428;-67
2021/08/20 05:43:14;;;;;;;;;7.25;5.75;;;;;17.47;67.27;101418.88;4942625;28;45587;-67
2021/08/20 05:45:39;;;;;;;;;6.50;4.25;;;;;17.48;67.36;101416.03;4950404;28;45504;-67
2021/08/20 05:48:06;;;;;;;;;5.75;5.25;;;;;17.52;67.09;101424.50;4947642;28;45783;-67
2021/08/20 05:50:31;;;;;;;;;6.00;5.00;;;;;17.54;67.21;101425.16;4945454;28;45577;-67
2021/08/20 05:52:57;;;;;;;;;4.25;4.00;;;;;17.53;66.75;101424.34;4947672;28;45585;-69
2021/08/20 05:55:24;;;;;;;;;5.00;5.00;;;;;17.54;66.56;101417.97;4947759;28;50376;-68
2021/08/20 05:57:50;;;;;;;;;5.00;4.25;;;;;17.54;66.69;101425.16;4942407;28;45523;-69
2021/08/20 06:00:16;;;;;;;;;6.00;4.00;;;;;17.55;66.73;101419.63;4945120;28;45460;-68
2021/08/20 06:02:41;;;;;;;;;5.00;5.00;;;;;17.58;66.61;101418.44;4949478;28;47172;-68
2021/08/20 06:05:07;;;;;;;;;5.00;4.50;;;;;17.57;66.57;101408.75;4946394;28;45520;-67
2021/08/20 06:07:32;;;;;;;;;5.00;5.00;;;;;17.61;67.00;101420.75;4944990;28;45618;-66
2021/08/20 06:09:58;;;;;;;;;8.00;5.00;;;;;17.63;66.99;101419.56;4944293;28;45426;-67
2021/08/20 06:12:24;;;;;;;;;6.75;4.00;;;;;17.67;66.91;101428.06;4944151;28;46149;-69
2021/08/20 06:14:49;;;;;;;;;7.00;7.00;;;;;17.69;66.91;101423.38;4917877;28;45641;-67
2021/08/20 06:17:14;;;;;;;;;7.00;6.00;;;;;17.71;66.75;101432.03;4936817;28;45596;-68
2021/08/20 06:19:40;;;;;;;;;8.00;5.00;;;;;17.76;67.01;101426.16;4937082;28;45516;-68
2021/08/20 06:22:05;;;;;;;;;4.00;4.00;;;;;17.82;67.33;101430.81;4943174;28;47068;-69
2021/08/20 06:24:30;;;;;;;;;7.75;5.00;;;;;17.86;66.92;101424.09;4942186;28;45962;-68
2021/08/20 06:26:56;;;;;;;;;5.50;4.50;;;;;17.90;66.18;101435.25;4925944;28;45608;-68
2021/08/20 06:29:21;;;;;;;;;7.00;5.00;;;;;17.94;66.06;101436.56;4932741;28;45486;-69
2021/08/20 06:31:48;;;;;;;;;7.75;5.75;;;;;17.95;66.23;101432.88;4935711;28;46571;-68
2021/08/20 06:34:14;;;;;;;;;6.50;5.00;;;;;18.01;66.47;101440.19;4942079;28;45642;-68
2021/08/20 06:36:39;;;;;;;;;9.50;6.50;;;;;18.05;65.99;101438.78;4941473;28;45819;-69
2021/08/20 06:39:04;;;;;;;;;6.75;5.25;;;;;18.13;66.84;101440.56;4923566;28;45600;-68
2021/08/20 06:41:30;;;;;;;;;6.00;5.00;;;;;18.17;66.00;101440.00;4940095;28;46185;-69
2021/08/20 06:43:55;;;;;;;;;6.75;5.50;;;;;18.17;66.09;101441.84;4943809;28;45630;-68
2021/08/20 06:46:21;;;;;;;;;6.50;6.00;;;;;18.17;66.05;101437.31;4929850;28;45495;-68
2021/08/20 06:48:46;;;;;;;;;6.75;5.00;;;;;18.20;66.18;101439.66;4947930;28;45485;-70
2021/08/20 06:51:13;;;;;;;;;7.00;5.00;;;;;18.23;66.39;101444.63;4928721;28;46827;-67
2021/08/20 06:53:39;;;;;;;;;8.50;7.75;;;;;18.27;67.28;101437.91;4941878;28;45641;-67
2021/08/20 06:56:05;;;;;;;;;9.00;7.00;;;;;18.31;65.29;101437.56;4945592;28;45624;-69
2021/08/20 06:58:31;;;;;;;;;9.25;6.00;;;;;18.30;65.62;101431.38;4949856;28;45551;-67
2021/08/20 07:00:56;;;;;;;;;7.25;7.00;;;;;18.30;65.44;101434.06;4949051;28;47100;-67
2021/08/20 07:03:21;;;;;;;;;9.75;6.75;;;;;18.31;65.66;101437.56;4945191;28;47216;-68
2021/08/20 07:05:47;;;;;;;;;9.25;7.00;;;;;18.34;66.42;101442.53;4946318;28;45592;-69
2021/08/20 07:08:12;;;;;;;;;7.00;5.00;;;;;18.39;66.24;101435.59;4945153;28;45549;-67
2021/08/20 07:10:37;;;;;;;;;7.25;5.00;;;;;18.45;65.77;101442.09;4946011;28;45468;-67
2021/08/20 07:13:03;;;;;;;;;6.50;5.50;;;;;18.46;65.62;101435.72;4949443;28;45537;-67
2021/08/20 07:15:28;;;;;;;;;7.00;6.00;;;;;18.50;65.02;101436.19;4940893;28;45470;-66
2021/08/20 07:17:54;;;;;;;;;5.25;5.25;;;;;18.51;65.48;101440.50;4937760;28;45559;-67
2021/08/20 07:20:19;;;;;;;;;6.25;5.50;;;;;18.54;65.63;101445.50;4939744;28;46036;-68
2021/08/20 07:22:45;;;;;;;;;5.00;5.00;;;;;18.61;65.84;101447.25;4943277;28;45651;-67
2021/08/20 07:25:10;;;;;;;;;9.00;6.25;;;;;18.66;65.38;101450.19;4946936;28;45639;-67
2021/08/20 07:27:35;;;;;;;;;7.00;5.25;;;;;18.68;65.24;101445.47;4942187;28;45643;-67
2021/08/20 07:30:01;;;;;;;;;7.00;5.00;;;;;18.68;64.90;101444.66;4943289;28;46534;-67
2021/08/20 07:32:26;;;;;;;;;6.00;6.00;;;;;18.69;65.00;101449.84;4926089;28;45591;-67
2021/08/20 07:34:52;;;;;;;;;7.25;6.25;;;;;18.70;65.05;101453.34;4940546;28;45505;-69
2021/08/20 07:37:17;;;;;;;;;6.75;6.50;;;;;18.68;64.58;101458.88;4947024;28;45533;-68
2021/08/20 07:39:42;;;;;;;;;4.00;4.00;;;;;18.60;64.59;101455.47;4942569;28;45455;-68
2021/08/20 07:42:08;;;;;;;;;4.50;4.50;;;;;18.57;64.83;101451.31;4943852;28;45500;-67
2021/08/20 07:44:33;;;;;;;;;10.00;6.00;;;;;18.61;65.92;101454.44;4928556;28;45663;-67
2021/08/20 07:46:59;;;;;;;;;7.25;3.00;;;;;18.64;65.19;101454.91;4942652;28;45548;-67
2021/08/20 07:49:25;;;;;;;;;6.00;6.00;;;;;18.68;64.91;101466.91;4944541;28;45496;-67
2021/08/20 07:51:51;;;;;;;;;7.00;5.50;;;;;18.72;64.66;101461.16;4946434;28;45560;-69
2021/08/20 07:54:16;;;;;;;;;9.00;5.00;;;;;18.75;64.65;101463.50;4943033;28;45494;-67
2021/08/20 07:56:42;;;;;;;;;5.00;5.00;;;;;18.79;64.45;101462.97;4940800;28;45630;-67
2021/08/20 07:59:07;;;;;;;;;7.25;6.50;;;;;18.83;65.32;101463.44;4943128;28;45666;-68
2021/08/20 08:01:33;;;;;;;;;7.25;6.00;;;;;18.91;65.13;101463.31;4942752;28;45548;-68
2021/08/20 08:03:58;;;;;;;;;6.50;6.50;;;;;18.95;65.51;101464.63;4948351;28;45584;-69
2021/08/20 08:06:24;;;;;;;;;6.75;6.75;;;;;19.02;65.57;101462.84;4944064;28;45420;-69
2021/08/20 08:08:50;;;;;;;;;8.25;7.25;;;;;19.11;65.17;101464.41;4946286;28;45523;-67
2021/08/20 08:11:15;;;;;;;;;8.75;7.50;;;;;19.16;64.99;101468.34;4943010;28;45490;-68
2021/08/20 08:13:41;;;;;;;;;8.75;7.25;;;;;19.23;65.27;101470.09;4941917;28;45435;-67
2021/08/20 08:16:06;;;;;;;;;11.25;10.75;;;;;19.32;64.80;101468.13;4945552;28;45554;-67
2021/08/20 08:18:31;;;;;;;;;10.50;9.25;;;;;19.38;64.34;101475.41;4945170;28;45467;-70
2021/08/20 08:20:57;;;;;;;;;11.50;8.75;;;;;19.44;64.41;101481.88;4937530;28;46163;-72
2021/08/20 08:23:22;;;;;;;;;9.00;8.00;;;;;19.46;63.59;101469.94;4944539;28;45628;-68
2021/08/20 08:25:47;;;;;;;;;9.50;7.00;;;;;19.50;63.46;101483.78;4947457;28;45623;-70
2021/08/20 08:28:13;;;;;;;;;8.25;7.00;;;;;19.53;64.29;101480.72;4940720;28;46117;-70
2021/08/20 08:30:40;;;;;;;;;11.25;8.00;;;;;19.60;64.02;101486.16;4944063;28;45539;-71
2021/08/20 08:33:08;;;;;;;;;9.75;8.50;;;;;19.65;63.76;101489.09;4950745;28;45689;-70
2021/08/20 08:35:33;;;;;;;;;10.50;7.75;;;;;19.70;63.81;101486.72;4930683;28;45630;-71
2021/08/20 08:38:03;;;;;;;;;10.50;8.25;;;;;19.76;63.29;101491.31;4926484;28;46863;-66
2021/08/20 08:40:28;;;;;;;;;10.25;8.25;;;;;19.82;63.33;101493.22;4951418;28;45697;-67
2021/08/20 08:42:56;;;;;;;;;8.75;7.75;;;;;19.87;61.73;101498.00;4944992;28;45535;-66
2021/08/20 08:45:22;;;;;;;;;9.00;7.00;;;;;19.87;63.12;101493.47;4948124;28;45568;-67
2021/08/20 08:47:49;;;;;;;;;9.00;7.50;;;;;19.96;62.72;101492.31;4946162;28;47253;-70
2021/08/20 08:50:15;;;;;;;;;10.25;8.50;;;;;19.97;61.72;101496.66;4948734;28;45650;-65
2021/08/20 08:52:40;;;;;;;;;9.75;7.75;;;;;19.97;62.38;101499.34;4956433;28;45663;-69
2021/08/20 08:55:07;;;;;;;;;8.50;7.25;;;;;20.02;62.56;101497.94;4949496;28;45422;-70
2021/08/20 08:57:32;;;;;;;;;11.75;8.50;;;;;20.11;62.25;101502.16;4944852;28;46139;-66
2021/08/20 08:59:58;;;;;;;;;10.75;8.75;;;;;20.21;62.35;101491.91;4948522;28;52069;-66
2021/08/20 09:02:26;;;;;;;;;12.50;9.75;;;;;20.30;60.30;101495.25;4950271;28;45734;-67
2021/08/20 09:05:01;;;;;;;;;9.25;8.50;;;;;20.32;61.55;101486.00;4945882;28;45423;-69
2021/08/20 09:07:29;;;;;;;;;7.25;6.00;;;;;20.44;61.66;101496.19;4954009;28;46086;-66
2021/08/20 09:10:16;;;;;;;;;13.25;8.75;;;;;20.54;61.32;101488.63;4945737;28;45582;-67
2021/08/20 09:12:52;;;;;;;;;8.75;6.00;;;;;20.63;60.92;101494.72;4951268;28;45665;-70
2021/08/20 09:15:20;;;;;;;;;11.25;7.00;;;;;20.64;61.05;101494.50;4953708;28;45624;-68
2021/08/20 09:17:58;;;;;;;;;10.00;7.50;;;;;20.69;61.48;101486.69;4953245;28;46042;-66
2021/08/20 09:20:28;;;;;;;;;8.75;7.50;;;;;20.77;60.92;101494.59;4955785;28;45403;-67
2021/08/20 09:22:57;;;;;;;;;8.25;7.75;;;;;20.85;60.27;101495.47;4954222;28;45579;-67
2021/08/20 09:25:45;;;;;;;;;11.75;10.00;;;;;20.84;59.45;101489.22;4949079;28;45581;-68
2021/08/20 09:28:14;;;;;;;;;12.00;7.75;;;;;20.89;60.23;101489.47;4944712;28;46403;-69
2021/08/20 09:30:43;;;;;;;;;9.50;8.75;;;;;21.04;60.73;101483.94;4941145;28;45628;-72
2021/08/20 09:33:15;;;;;;;;;10.75;8.00;;;;;21.29;60.44;101478.91;4940030;28;45567;-65
2021/08/20 09:35:41;;;;;;;;;10.00;9.00;;;;;21.54;60.73;101483.72;4942239;28;45658;-68
2021/08/20 09:38:08;;;;;;;;;7.75;6.25;;;;;21.77;60.28;101480.69;4950392;28;46119;-69
2021/08/20 09:40:34;;;;;;;;;6.75;6.75;;;;;21.87;58.97;101484.59;4949515;28;45441;-68
2021/08/20 09:43:23;;;;;;;;;10.25;8.75;;;;;21.99;59.27;101478.63;4955957;28;45906;-71
2021/08/20 09:45:59;;;;;;;;;5.00;5.00;;;;;22.15;58.44;101477.38;4952329;28;45588;-71
2021/08/20 09:49:01;;;;;;;;;7.50;6.50;;;;;22.30;58.55;101475.31;4947115;28;47264;-69
2021/08/20 09:51:40;;;;;;;;;6.25;4.75;;;;;22.43;57.99;101478.00;4932495;28;45968;-67
2021/08/20 09:54:10;;;;;;;;;9.50;6.00;;;;;22.45;57.26;101480.47;4940661;28;45748;-71
2021/08/20 09:56:36;;;;;;;;;9.00;8.00;;;;;22.55;56.30;101480.84;4950515;28;45452;-68
2021/08/20 09:59:04;;;;;;;;;7.00;6.00;;;;;22.65;55.22;101483.09;4945961;28;46377;-72
2021/08/20 10:01:32;;;;;;;;;8.00;6.50;;;;;22.65;54.28;101485.81;4962123;28;45477;-68
2021/08/20 10:03:59;;;;;;;;;10.00;7.75;;;;;22.71;55.91;101491.19;4958570;28;45539;-69
2021/08/20 10:06:29;;;;;;;;;8.00;5.50;;;;;22.92;56.49;101473.91;4948955;28;45574;-71
2021/08/20 10:08:59;;;;;;;;;5.00;4.00;;;;;23.19;55.75;101476.50;4953542;28;45603;-71
2021/08/20 10:11:27;;;;;;;;;7.00;5.25;;;;;23.49;55.35;101481.31;4943389;28;45434;-70
2021/08/20 10:13:53;;;;;;;;;6.00;6.00;;;;;23.71;54.27;101479.91;4951203;28;45579;-69
2021/08/20 10:16:19;;;;;;;;;5.25;4.25;;;;;24.00;54.78;101483.06;4954572;28;45437;-71
2021/08/20 10:18:45;;;;;;;;;5.75;5.75;;;;;24.34;54.04;101480.91;4942087;28;46382;-68
2021/08/20 10:21:11;;;;;;;;;4.75;4.25;;;;;24.67;53.49;101476.00;4941735;28;46089;-72
2021/08/20 10:23:37;;;;;;;;;6.00;5.00;;;;;24.95;51.17;101480.06;4949150;28;45543;-68
2021/08/20 10:26:06;;;;;;;;;8.00;6.00;;;;;25.13;50.54;101483.78;4946755;28;45636;-68
2021/08/20 10:28:33;;;;;;;;;5.00;4.25;;;;;25.11;50.37;101479.41;4945692;28;46402;-70
2021/08/20 10:30:59;;;;;;;;;6.50;5.25;;;;;25.39;51.79;101483.44;4944408;28;45601;-70
2021/08/20 10:33:33;;;;;;;;;6.00;5.00;;;;;25.83;50.94;101477.78;4936995;28;45563;-69
2021/08/20 10:36:00;;;;;;;;;6.25;6.25;;;;;26.34;50.28;101479.84;4943340;28;45627;-70
2021/08/20 10:38:47;;;;;;;;;4.00;4.00;;;;;26.94;49.01;101481.44;4944312;28;45874;-71
2021/08/20 10:41:17;;;;;;;;;4.25;4.25;;;;;27.52;47.06;101485.00;4941105;28;50412;-70
2021/08/20 10:43:48;;;;;;;;;4.75;3.25;;;;;27.85;46.65;101480.69;4936828;28;45566;-70
2021/08/20 10:46:37;;;;;;;;;4.50;3.75;;;;;28.23;44.91;101481.81;4939806;28;45652;-73
2021/08/20 10:49:12;;;;;;;;;4.50;4.50;;;;;28.42;44.33;101477.75;4926521;28;46218;-72
2021/08/20 10:51:50;;;;;;;;;3.25;3.25;;;;;28.75;43.71;101473.31;4937003;28;45656;-69
2021/08/20 10:54:16;;;;;;;;;3.00;3.00;;;;;29.11;43.58;101471.84;4941262;28;45487;-71
2021/08/20 10:56:41;;;;;;;;;3.25;2.00;;;;;29.68;43.35;101467.81;4936407;28;46173;-71
2021/08/20 10:59:07;;;;;;;;;3.25;2.25;;;;;30.29;42.47;101466.59;4943454;28;46156;-71
2021/08/20 11:01:32;;;;;;;;;3.25;3.25;;;;;30.87;42.15;101470.19;4937134;28;45558;-72
2021/08/20 11:03:59;;;;;;;;;4.00;3.50;;;;;31.15;39.71;101465.34;4942916;28;45467;-71
2021/08/20 11:06:51;;;;;;;;;2.75;2.75;;;;;31.35;39.97;101473.56;4938054;28;45689;-72
2021/08/20 11:09:28;;;;;;;;;2.50;2.00;;;;;31.57;38.61;101470.59;4936831;28;46287;-72
2021/08/20 11:11:53;;;;;;;;;1.50;1.50;;;;;31.54;37.70;101462.16;4938379;28;45579;-69
2021/08/20 11:14:23;;;;;;;;;2.75;2.25;;;;;31.52;38.31;101472.53;4936644;28;45544;-68
2021/08/20 11:16:49;;;;;;;;;1.00;1.00;;;;;31.54;35.25;101462.97;4934662;28;46169;-69
2021/08/20 11:19:44;;;;;;;;;1.75;1.75;;;;;31.69;38.50;101464.88;4943907;28;45811;-68
2021/08/20 11:22:17;;;;;;;;;3.50;2.00;;;;;32.06;37.36;101469.25;4953525;28;45540;-72